sensor_id;sensor_type;location;lat;lon;timestamp;P1;durP1;ratioP1;P2;durP2;ratioP2
63807;SDS011;49961;43.970;22.868;2022-11-10T00:00:22;41.77;;;33.03;;
63807;SDS011;49961;43.970;22.868;2022-11-10T00:01:23;41.50;;;32.17;;
63807;SDS011;49961;43.970;22.868;2022-11-10T00:02:23;39.30;;;32.27;;
63807;SDS011;49961;43.970;22.868;2022-11-10T00:03:23;39.50;;;32.63;;
63807;SDS011;49961;43.970;22.868;2022-11-10T00:04:27;43.63;;;32.50;;
63807;SDS011;49961;43.970;22.868;2022-11-10T00:05:27;37.50;;;31.57;;
63807;SDS011;49961;43.970;22.868;2022-11-10T00:06:28;44.20;;;34.30;;
63807;SDS011;49961;43.970;22.868;2022-11-10T00:07:29;46.80;;;37.17;;
63807;SDS011;49961;43.970;22.868;2022-11-10T00:08:29;52.13;;;39.77;;
63807;SDS011;49961;43.970;22.868;2022-11-10T00:09:30;52.57;;;40.93;;
63807;SDS011;49961;43.970;22.868;2022-11-10T00:10:30;58.10;;;42.20;;
63807;SDS011;49961;43.970;22.868;2022-11-10T00:11:31;55.10;;;42.90;;
63807;SDS011;49961;43.970;22.868;2022-11-10T00:12:32;46.20;;;35.80;;
63807;SDS011;49961;43.970;22.868;2022-11-10T00:13:34;42.17;;;32.80;;
63807;SDS011;49961;43.970;22.868;2022-11-10T00:14:55;43.15;;;34.53;;
63807;SDS011;49961;43.970;22.868;2022-11-10T00:16:14;35.92;;;27.92;;
63807;SDS011;49961;43.970;22.868;2022-11-10T00:17:34;36.38;;;29.75;;
63807;SDS011;49961;43.970;22.868;2022-11-10T00:18:35;34.63;;;29.10;;
63807;SDS011;49961;43.970;22.868;2022-11-10T00:19:35;27.80;;;23.87;;
63807;SDS011;49961;43.970;22.868;2022-11-10T00:20:36;24.70;;;21.97;;
63807;SDS011;49961;43.970;22.868;2022-11-10T00:21:36;20.83;;;18.63;;
63807;SDS011;49961;43.970;22.868;2022-11-10T00:22:37;21.53;;;19.30;;
63807;SDS011;49961;43.970;22.868;2022-11-10T00:23:38;26.93;;;23.57;;
63807;SDS011;49961;43.970;22.868;2022-11-10T00:24:39;39.77;;;31.87;;
63807;SDS011;49961;43.970;22.868;2022-11-10T00:25:39;43.60;;;33.70;;
63807;SDS011;49961;43.970;22.868;2022-11-10T00:26:40;45.10;;;34.70;;
63807;SDS011;49961;43.970;22.868;2022-11-10T00:27:40;43.97;;;34.40;;
63807;SDS011;49961;43.970;22.868;2022-11-10T00:28:41;47.83;;;35.20;;
63807;SDS011;49961;43.970;22.868;2022-11-10T00:29:42;46.55;;;34.28;;
63807;SDS011;49961;43.970;22.868;2022-11-10T00:30:43;43.90;;;34.80;;
63807;SDS011;49961;43.970;22.868;2022-11-10T00:31:43;42.40;;;34.57;;
63807;SDS011;49961;43.970;22.868;2022-11-10T00:32:45;46.43;;;35.60;;
63807;SDS011;49961;43.970;22.868;2022-11-10T00:33:46;37.72;;;29.98;;
63807;SDS011;49961;43.970;22.868;2022-11-10T00:34:47;43.60;;;33.47;;
63807;SDS011;49961;43.970;22.868;2022-11-10T00:35:47;42.23;;;32.27;;
63807;SDS011;49961;43.970;22.868;2022-11-10T00:36:48;37.57;;;30.33;;
63807;SDS011;49961;43.970;22.868;2022-11-10T00:37:48;41.40;;;30.60;;
63807;SDS011;49961;43.970;22.868;2022-11-10T00:38:50;40.60;;;30.70;;
63807;SDS011;49961;43.970;22.868;2022-11-10T00:39:50;39.07;;;30.87;;
63807;SDS011;49961;43.970;22.868;2022-11-10T00:40:51;38.77;;;30.97;;
63807;SDS011;49961;43.970;22.868;2022-11-10T00:41:51;38.70;;;31.30;;
63807;SDS011;49961;43.970;22.868;2022-11-10T00:42:52;39.83;;;32.83;;
63807;SDS011;49961;43.970;22.868;2022-11-10T00:43:52;41.53;;;33.33;;
63807;SDS011;49961;43.970;22.868;2022-11-10T00:44:53;42.03;;;31.60;;
63807;SDS011;49961;43.970;22.868;2022-11-10T00:45:53;39.17;;;32.13;;
63807;SDS011;49961;43.970;22.868;2022-11-10T00:46:54;36.70;;;30.33;;
63807;SDS011;49961;43.970;22.868;2022-11-10T00:47:54;40.37;;;31.37;;
63807;SDS011;49961;43.970;22.868;2022-11-10T00:48:54;38.67;;;31.57;;
63807;SDS011;49961;43.970;22.868;2022-11-10T00:49:55;40.30;;;30.70;;
63807;SDS011;49961;43.970;22.868;2022-11-10T00:50:55;37.83;;;30.20;;
63807;SDS011;49961;43.970;22.868;2022-11-10T00:51:56;38.27;;;30.57;;
63807;SDS011;49961;43.970;22.868;2022-11-10T00:52:56;31.33;;;25.40;;
63807;SDS011;49961;43.970;22.868;2022-11-10T00:53:57;28.80;;;23.73;;
63807;SDS011;49961;43.970;22.868;2022-11-10T00:54:57;30.53;;;25.43;;
63807;SDS011;49961;43.970;22.868;2022-11-10T00:55:58;35.07;;;25.57;;
63807;SDS011;49961;43.970;22.868;2022-11-10T00:56:58;35.20;;;26.60;;
63807;SDS011;49961;43.970;22.868;2022-11-10T00:57:59;34.17;;;26.63;;
63807;SDS011;49961;43.970;22.868;2022-11-10T00:58:59;35.93;;;26.87;;
63807;SDS011;49961;43.970;22.868;2022-11-10T01:00:00;38.97;;;30.43;;
63807;SDS011;49961;43.970;22.868;2022-11-10T01:01:01;38.27;;;31.07;;
63807;SDS011;49961;43.970;22.868;2022-11-10T01:02:02;37.80;;;28.37;;
63807;SDS011;49961;43.970;22.868;2022-11-10T01:03:02;33.20;;;27.97;;
63807;SDS011;49961;43.970;22.868;2022-11-10T01:04:03;36.70;;;29.73;;
63807;SDS011;49961;43.970;22.868;2022-11-10T01:05:03;39.23;;;31.67;;
63807;SDS011;49961;43.970;22.868;2022-11-10T01:06:05;33.27;;;27.13;;
63807;SDS011;49961;43.970;22.868;2022-11-10T01:07:07;39.20;;;30.73;;
63807;SDS011;49961;43.970;22.868;2022-11-10T01:08:08;42.23;;;32.27;;
63807;SDS011;49961;43.970;22.868;2022-11-10T01:09:08;38.97;;;31.27;;
63807;SDS011;49961;43.970;22.868;2022-11-10T01:10:09;34.50;;;28.93;;
63807;SDS011;49961;43.970;22.868;2022-11-10T01:11:11;39.57;;;31.70;;
63807;SDS011;49961;43.970;22.868;2022-11-10T01:12:22;38.17;;;30.10;;
63807;SDS011;49961;43.970;22.868;2022-11-10T01:13:22;39.87;;;30.97;;
63807;SDS011;49961;43.970;22.868;2022-11-10T01:14:23;34.43;;;28.50;;
63807;SDS011;49961;43.970;22.868;2022-11-10T01:15:23;33.57;;;27.27;;
63807;SDS011;49961;43.970;22.868;2022-11-10T01:16:25;29.77;;;24.90;;
63807;SDS011;49961;43.970;22.868;2022-11-10T01:17:28;34.77;;;27.57;;
63807;SDS011;49961;43.970;22.868;2022-11-10T01:18:29;29.73;;;24.90;;
63807;SDS011;49961;43.970;22.868;2022-11-10T01:19:29;35.93;;;27.67;;
63807;SDS011;49961;43.970;22.868;2022-11-10T01:20:31;36.50;;;29.43;;
63807;SDS011;49961;43.970;22.868;2022-11-10T01:21:32;34.97;;;28.73;;
63807;SDS011;49961;43.970;22.868;2022-11-10T01:22:33;37.60;;;29.47;;
63807;SDS011;49961;43.970;22.868;2022-11-10T01:23:34;34.70;;;27.50;;
63807;SDS011;49961;43.970;22.868;2022-11-10T01:24:35;32.23;;;27.03;;
63807;SDS011;49961;43.970;22.868;2022-11-10T01:25:35;32.03;;;27.17;;
63807;SDS011;49961;43.970;22.868;2022-11-10T01:26:36;32.80;;;26.00;;
63807;SDS011;49961;43.970;22.868;2022-11-10T01:27:36;32.53;;;25.87;;
63807;SDS011;49961;43.970;22.868;2022-11-10T01:28:36;36.80;;;29.30;;
63807;SDS011;49961;43.970;22.868;2022-11-10T01:29:37;29.90;;;24.93;;
63807;SDS011;49961;43.970;22.868;2022-11-10T01:30:37;29.23;;;24.50;;
63807;SDS011;49961;43.970;22.868;2022-11-10T01:31:38;32.27;;;26.00;;
63807;SDS011;49961;43.970;22.868;2022-11-10T01:32:39;34.73;;;27.03;;
63807;SDS011;49961;43.970;22.868;2022-11-10T01:33:39;37.30;;;27.53;;
63807;SDS011;49961;43.970;22.868;2022-11-10T01:34:39;31.43;;;22.77;;
63807;SDS011;49961;43.970;22.868;2022-11-10T01:35:40;31.83;;;24.17;;
63807;SDS011;49961;43.970;22.868;2022-11-10T01:36:40;33.00;;;22.60;;
63807;SDS011;49961;43.970;22.868;2022-11-10T01:37:41;30.10;;;21.47;;
63807;SDS011;49961;43.970;22.868;2022-11-10T01:38:41;29.80;;;21.73;;
63807;SDS011;49961;43.970;22.868;2022-11-10T01:39:42;32.57;;;21.97;;
63807;SDS011;49961;43.970;22.868;2022-11-10T01:40:43;30.03;;;22.83;;
63807;SDS011;49961;43.970;22.868;2022-11-10T01:41:44;27.10;;;20.63;;
63807;SDS011;49961;43.970;22.868;2022-11-10T01:43:52;19.33;;;16.13;;
63807;SDS011;49961;43.970;22.868;2022-11-10T01:46:24;17.10;;;15.27;;
63807;SDS011;49961;43.970;22.868;2022-11-10T01:47:25;16.93;;;15.10;;
63807;SDS011;49961;43.970;22.868;2022-11-10T01:48:27;17.97;;;15.53;;
63807;SDS011;49961;43.970;22.868;2022-11-10T01:49:32;17.67;;;15.23;;
63807;SDS011;49961;43.970;22.868;2022-11-10T01:50:36;18.97;;;16.20;;
63807;SDS011;49961;43.970;22.868;2022-11-10T01:52:52;24.60;;;19.00;;
63807;SDS011;49961;43.970;22.868;2022-11-10T01:53:57;22.10;;;19.80;;
63807;SDS011;49961;43.970;22.868;2022-11-10T01:55:00;25.10;;;22.25;;
63807;SDS011;49961;43.970;22.868;2022-11-10T01:56:01;27.07;;;22.67;;
63807;SDS011;49961;43.970;22.868;2022-11-10T01:57:03;27.77;;;23.75;;
63807;SDS011;49961;43.970;22.868;2022-11-10T01:58:06;25.97;;;23.17;;
63807;SDS011;49961;43.970;22.868;2022-11-10T01:59:09;25.57;;;22.27;;
63807;SDS011;49961;43.970;22.868;2022-11-10T02:00:12;24.70;;;21.27;;
63807;SDS011;49961;43.970;22.868;2022-11-10T02:01:13;23.90;;;21.40;;
63807;SDS011;49961;43.970;22.868;2022-11-10T02:02:19;27.70;;;21.83;;
63807;SDS011;49961;43.970;22.868;2022-11-10T02:04:36;27.87;;;23.03;;
63807;SDS011;49961;43.970;22.868;2022-11-10T02:05:39;26.35;;;23.33;;
63807;SDS011;49961;43.970;22.868;2022-11-10T02:06:40;29.23;;;25.07;;
63807;SDS011;49961;43.970;22.868;2022-11-10T02:07:42;27.90;;;23.20;;
63807;SDS011;49961;43.970;22.868;2022-11-10T02:08:43;34.70;;;26.70;;
63807;SDS011;49961;43.970;22.868;2022-11-10T02:09:45;33.37;;;27.10;;
63807;SDS011;49961;43.970;22.868;2022-11-10T02:10:45;35.03;;;28.80;;
63807;SDS011;49961;43.970;22.868;2022-11-10T02:11:46;39.43;;;29.47;;
63807;SDS011;49961;43.970;22.868;2022-11-10T02:12:50;32.63;;;28.58;;
63807;SDS011;49961;43.970;22.868;2022-11-10T02:13:51;35.17;;;27.73;;
63807;SDS011;49961;43.970;22.868;2022-11-10T02:14:52;36.38;;;29.50;;
63807;SDS011;49961;43.970;22.868;2022-11-10T02:15:53;33.50;;;27.73;;
63807;SDS011;49961;43.970;22.868;2022-11-10T02:16:53;38.07;;;29.37;;
63807;SDS011;49961;43.970;22.868;2022-11-10T02:17:54;34.70;;;26.17;;
63807;SDS011;49961;43.970;22.868;2022-11-10T02:18:54;31.83;;;25.53;;
63807;SDS011;49961;43.970;22.868;2022-11-10T02:19:57;32.23;;;25.37;;
63807;SDS011;49961;43.970;22.868;2022-11-10T02:21:02;33.87;;;24.10;;
63807;SDS011;49961;43.970;22.868;2022-11-10T02:22:06;32.10;;;27.70;;
63807;SDS011;49961;43.970;22.868;2022-11-10T02:23:13;32.27;;;26.10;;
63807;SDS011;49961;43.970;22.868;2022-11-10T02:24:29;36.13;;;28.67;;
63807;SDS011;49961;43.970;22.868;2022-11-10T02:25:30;35.00;;;26.67;;
63807;SDS011;49961;43.970;22.868;2022-11-10T02:26:31;34.10;;;28.30;;
63807;SDS011;49961;43.970;22.868;2022-11-10T02:27:32;37.27;;;27.87;;
63807;SDS011;49961;43.970;22.868;2022-11-10T02:28:34;29.03;;;23.30;;
63807;SDS011;49961;43.970;22.868;2022-11-10T02:29:36;37.37;;;28.77;;
63807;SDS011;49961;43.970;22.868;2022-11-10T02:30:37;35.00;;;27.17;;
63807;SDS011;49961;43.970;22.868;2022-11-10T02:31:37;36.27;;;27.80;;
63807;SDS011;49961;43.970;22.868;2022-11-10T02:32:38;35.47;;;28.80;;
63807;SDS011;49961;43.970;22.868;2022-11-10T02:33:38;34.37;;;26.70;;
63807;SDS011;49961;43.970;22.868;2022-11-10T02:34:39;35.10;;;28.17;;
63807;SDS011;49961;43.970;22.868;2022-11-10T02:35:40;32.80;;;27.20;;
63807;SDS011;49961;43.970;22.868;2022-11-10T02:36:40;39.40;;;28.00;;
63807;SDS011;49961;43.970;22.868;2022-11-10T02:37:41;34.77;;;27.23;;
63807;SDS011;49961;43.970;22.868;2022-11-10T02:38:41;37.50;;;27.43;;
63807;SDS011;49961;43.970;22.868;2022-11-10T02:39:41;29.47;;;24.27;;
63807;SDS011;49961;43.970;22.868;2022-11-10T02:40:42;35.03;;;27.47;;
63807;SDS011;49961;43.970;22.868;2022-11-10T02:41:42;27.17;;;22.63;;
63807;SDS011;49961;43.970;22.868;2022-11-10T02:42:43;32.50;;;26.43;;
63807;SDS011;49961;43.970;22.868;2022-11-10T02:43:43;29.93;;;23.40;;
63807;SDS011;49961;43.970;22.868;2022-11-10T02:44:44;24.90;;;20.67;;
63807;SDS011;49961;43.970;22.868;2022-11-10T02:45:44;23.03;;;18.67;;
63807;SDS011;49961;43.970;22.868;2022-11-10T02:46:45;19.67;;;16.40;;
63807;SDS011;49961;43.970;22.868;2022-11-10T02:47:45;16.80;;;14.83;;
63807;SDS011;49961;43.970;22.868;2022-11-10T02:48:46;18.80;;;15.20;;
63807;SDS011;49961;43.970;22.868;2022-11-10T02:49:46;18.57;;;16.10;;
63807;SDS011;49961;43.970;22.868;2022-11-10T02:50:47;17.23;;;15.53;;
63807;SDS011;49961;43.970;22.868;2022-11-10T02:51:47;18.33;;;16.37;;
63807;SDS011;49961;43.970;22.868;2022-11-10T02:52:48;16.10;;;14.47;;
63807;SDS011;49961;43.970;22.868;2022-11-10T02:53:48;18.80;;;15.67;;
63807;SDS011;49961;43.970;22.868;2022-11-10T02:54:49;17.70;;;15.63;;
63807;SDS011;49961;43.970;22.868;2022-11-10T02:55:49;21.80;;;15.90;;
63807;SDS011;49961;43.970;22.868;2022-11-10T02:56:49;20.50;;;16.23;;
63807;SDS011;49961;43.970;22.868;2022-11-10T02:57:50;19.00;;;16.97;;
63807;SDS011;49961;43.970;22.868;2022-11-10T02:58:51;23.03;;;19.57;;
63807;SDS011;49961;43.970;22.868;2022-11-10T02:59:51;26.53;;;21.07;;
63807;SDS011;49961;43.970;22.868;2022-11-10T03:00:52;27.37;;;22.97;;
63807;SDS011;49961;43.970;22.868;2022-11-10T03:01:52;27.23;;;22.73;;
63807;SDS011;49961;43.970;22.868;2022-11-10T03:02:56;26.90;;;23.00;;
63807;SDS011;49961;43.970;22.868;2022-11-10T03:03:57;27.27;;;22.70;;
63807;SDS011;49961;43.970;22.868;2022-11-10T03:04:57;28.27;;;23.37;;
63807;SDS011;49961;43.970;22.868;2022-11-10T03:05:58;28.90;;;23.00;;
63807;SDS011;49961;43.970;22.868;2022-11-10T03:06:59;27.13;;;23.00;;
63807;SDS011;49961;43.970;22.868;2022-11-10T03:08:01;27.77;;;22.03;;
63807;SDS011;49961;43.970;22.868;2022-11-10T03:09:02;30.77;;;22.98;;
63807;SDS011;49961;43.970;22.868;2022-11-10T03:10:03;29.33;;;22.40;;
63807;SDS011;49961;43.970;22.868;2022-11-10T03:11:05;28.48;;;22.35;;
63807;SDS011;49961;43.970;22.868;2022-11-10T03:12:05;26.80;;;22.90;;
63807;SDS011;49961;43.970;22.868;2022-11-10T03:13:06;27.60;;;23.20;;
63807;SDS011;49961;43.970;22.868;2022-11-10T03:14:06;24.63;;;21.60;;
63807;SDS011;49961;43.970;22.868;2022-11-10T03:15:07;26.00;;;21.33;;
63807;SDS011;49961;43.970;22.868;2022-11-10T03:16:08;26.98;;;21.40;;
63807;SDS011;49961;43.970;22.868;2022-11-10T03:17:08;31.47;;;25.20;;
63807;SDS011;49961;43.970;22.868;2022-11-10T03:18:08;28.50;;;23.73;;
63807;SDS011;49961;43.970;22.868;2022-11-10T03:19:09;28.07;;;22.63;;
63807;SDS011;49961;43.970;22.868;2022-11-10T03:20:09;26.33;;;22.77;;
63807;SDS011;49961;43.970;22.868;2022-11-10T03:21:10;29.13;;;24.30;;
63807;SDS011;49961;43.970;22.868;2022-11-10T03:22:10;31.57;;;25.50;;
63807;SDS011;49961;43.970;22.868;2022-11-10T03:23:11;31.47;;;24.60;;
63807;SDS011;49961;43.970;22.868;2022-11-10T03:24:11;26.43;;;22.93;;
63807;SDS011;49961;43.970;22.868;2022-11-10T03:25:12;26.47;;;21.50;;
63807;SDS011;49961;43.970;22.868;2022-11-10T03:26:13;25.00;;;20.80;;
63807;SDS011;49961;43.970;22.868;2022-11-10T03:27:13;25.97;;;21.97;;
63807;SDS011;49961;43.970;22.868;2022-11-10T03:28:13;28.27;;;22.10;;
63807;SDS011;49961;43.970;22.868;2022-11-10T03:29:14;29.57;;;21.70;;
63807;SDS011;49961;43.970;22.868;2022-11-10T03:30:15;30.03;;;22.30;;
63807;SDS011;49961;43.970;22.868;2022-11-10T03:31:15;27.40;;;21.23;;
63807;SDS011;49961;43.970;22.868;2022-11-10T03:32:15;28.37;;;21.93;;
63807;SDS011;49961;43.970;22.868;2022-11-10T03:33:16;28.10;;;21.43;;
63807;SDS011;49961;43.970;22.868;2022-11-10T03:34:16;27.20;;;21.90;;
63807;SDS011;49961;43.970;22.868;2022-11-10T03:35:17;27.83;;;22.47;;
63807;SDS011;49961;43.970;22.868;2022-11-10T03:36:18;26.83;;;22.87;;
63807;SDS011;49961;43.970;22.868;2022-11-10T03:37:18;28.00;;;22.03;;
63807;SDS011;49961;43.970;22.868;2022-11-10T03:38:19;30.77;;;26.33;;
63807;SDS011;49961;43.970;22.868;2022-11-10T03:39:19;32.73;;;27.50;;
63807;SDS011;49961;43.970;22.868;2022-11-10T03:40:20;35.90;;;28.00;;
63807;SDS011;49961;43.970;22.868;2022-11-10T03:41:20;36.70;;;28.73;;
63807;SDS011;49961;43.970;22.868;2022-11-10T03:42:20;34.40;;;28.20;;
63807;SDS011;49961;43.970;22.868;2022-11-10T03:43:21;27.57;;;24.53;;
63807;SDS011;49961;43.970;22.868;2022-11-10T03:44:21;27.17;;;21.93;;
63807;SDS011;49961;43.970;22.868;2022-11-10T03:45:22;30.37;;;23.67;;
63807;SDS011;49961;43.970;22.868;2022-11-10T03:46:22;31.30;;;26.00;;
63807;SDS011;49961;43.970;22.868;2022-11-10T03:47:23;28.57;;;23.80;;
63807;SDS011;49961;43.970;22.868;2022-11-10T03:48:23;25.67;;;22.07;;
63807;SDS011;49961;43.970;22.868;2022-11-10T03:49:23;27.97;;;21.70;;
63807;SDS011;49961;43.970;22.868;2022-11-10T03:50:24;27.00;;;21.70;;
63807;SDS011;49961;43.970;22.868;2022-11-10T03:51:24;24.97;;;22.20;;
63807;SDS011;49961;43.970;22.868;2022-11-10T03:52:25;24.03;;;20.70;;
63807;SDS011;49961;43.970;22.868;2022-11-10T03:53:25;25.07;;;21.53;;
63807;SDS011;49961;43.970;22.868;2022-11-10T03:54:25;30.93;;;25.73;;
63807;SDS011;49961;43.970;22.868;2022-11-10T03:55:26;32.70;;;26.27;;
63807;SDS011;49961;43.970;22.868;2022-11-10T03:56:26;29.37;;;24.37;;
63807;SDS011;49961;43.970;22.868;2022-11-10T03:57:27;27.87;;;23.60;;
63807;SDS011;49961;43.970;22.868;2022-11-10T03:58:27;30.03;;;24.70;;
63807;SDS011;49961;43.970;22.868;2022-11-10T03:59:28;29.40;;;25.67;;
63807;SDS011;49961;43.970;22.868;2022-11-10T04:00:28;32.47;;;27.10;;
63807;SDS011;49961;43.970;22.868;2022-11-10T04:01:29;25.53;;;22.70;;
63807;SDS011;49961;43.970;22.868;2022-11-10T04:02:29;26.07;;;22.17;;
63807;SDS011;49961;43.970;22.868;2022-11-10T04:03:30;29.50;;;24.70;;
63807;SDS011;49961;43.970;22.868;2022-11-10T04:04:30;30.00;;;25.00;;
63807;SDS011;49961;43.970;22.868;2022-11-10T04:06:07;29.70;;;25.27;;
63807;SDS011;49961;43.970;22.868;2022-11-10T04:07:28;31.13;;;25.55;;
63807;SDS011;49961;43.970;22.868;2022-11-10T04:08:47;25.20;;;22.15;;
63807;SDS011;49961;43.970;22.868;2022-11-10T04:09:59;31.50;;;25.38;;
63807;SDS011;49961;43.970;22.868;2022-11-10T04:11:01;34.28;;;26.90;;
63807;SDS011;49961;43.970;22.868;2022-11-10T04:12:01;30.10;;;25.37;;
63807;SDS011;49961;43.970;22.868;2022-11-10T04:13:20;26.13;;;21.75;;
63807;SDS011;49961;43.970;22.868;2022-11-10T04:14:39;30.67;;;21.85;;
63807;SDS011;49961;43.970;22.868;2022-11-10T04:15:58;27.00;;;22.23;;
63807;SDS011;49961;43.970;22.868;2022-11-10T04:16:58;28.77;;;21.03;;
63807;SDS011;49961;43.970;22.868;2022-11-10T04:17:59;27.50;;;21.98;;
63807;SDS011;49961;43.970;22.868;2022-11-10T04:19:19;26.80;;;21.27;;
63807;SDS011;49961;43.970;22.868;2022-11-10T04:20:19;29.07;;;21.60;;
63807;SDS011;49961;43.970;22.868;2022-11-10T04:21:19;28.53;;;21.20;;
63807;SDS011;49961;43.970;22.868;2022-11-10T04:22:20;30.80;;;22.30;;
63807;SDS011;49961;43.970;22.868;2022-11-10T04:23:40;25.70;;;21.27;;
63807;SDS011;49961;43.970;22.868;2022-11-10T04:24:41;25.60;;;21.53;;
63807;SDS011;49961;43.970;22.868;2022-11-10T04:25:41;26.27;;;22.37;;
63807;SDS011;49961;43.970;22.868;2022-11-10T04:27:01;28.40;;;24.15;;
63807;SDS011;49961;43.970;22.868;2022-11-10T04:28:02;28.80;;;22.67;;
63807;SDS011;49961;43.970;22.868;2022-11-10T04:29:05;27.27;;;23.83;;
63807;SDS011;49961;43.970;22.868;2022-11-10T04:30:08;26.73;;;22.88;;
63807;SDS011;49961;43.970;22.868;2022-11-10T04:31:09;25.60;;;22.30;;
63807;SDS011;49961;43.970;22.868;2022-11-10T04:32:10;24.93;;;22.03;;
63807;SDS011;49961;43.970;22.868;2022-11-10T04:33:10;25.93;;;23.13;;
63807;SDS011;49961;43.970;22.868;2022-11-10T04:34:12;30.17;;;23.63;;
63807;SDS011;49961;43.970;22.868;2022-11-10T04:35:14;30.58;;;23.65;;
63807;SDS011;49961;43.970;22.868;2022-11-10T04:36:16;29.63;;;23.90;;
63807;SDS011;49961;43.970;22.868;2022-11-10T04:37:17;29.98;;;23.40;;
63807;SDS011;49961;43.970;22.868;2022-11-10T04:38:18;27.87;;;22.67;;
63807;SDS011;49961;43.970;22.868;2022-11-10T04:39:18;25.97;;;21.67;;
63807;SDS011;49961;43.970;22.868;2022-11-10T04:40:19;25.77;;;22.13;;
63807;SDS011;49961;43.970;22.868;2022-11-10T04:41:19;28.83;;;22.10;;
63807;SDS011;49961;43.970;22.868;2022-11-10T04:42:20;28.80;;;22.50;;
63807;SDS011;49961;43.970;22.868;2022-11-10T04:43:21;26.53;;;22.30;;
63807;SDS011;49961;43.970;22.868;2022-11-10T04:44:21;26.07;;;22.90;;
63807;SDS011;49961;43.970;22.868;2022-11-10T04:45:22;28.63;;;25.03;;
63807;SDS011;49961;43.970;22.868;2022-11-10T04:46:23;24.87;;;21.57;;
63807;SDS011;49961;43.970;22.868;2022-11-10T04:47:29;25.60;;;20.83;;
63807;SDS011;49961;43.970;22.868;2022-11-10T04:48:30;25.10;;;21.33;;
63807;SDS011;49961;43.970;22.868;2022-11-10T04:49:31;26.15;;;21.25;;
63807;SDS011;49961;43.970;22.868;2022-11-10T04:50:32;25.57;;;21.87;;
63807;SDS011;49961;43.970;22.868;2022-11-10T04:51:34;24.33;;;20.85;;
63807;SDS011;49961;43.970;22.868;2022-11-10T04:52:36;21.60;;;18.55;;
63807;SDS011;49961;43.970;22.868;2022-11-10T04:53:37;23.20;;;18.80;;
63807;SDS011;49961;43.970;22.868;2022-11-10T04:54:37;18.97;;;16.97;;
63807;SDS011;49961;43.970;22.868;2022-11-10T04:55:38;23.87;;;18.00;;
63807;SDS011;49961;43.970;22.868;2022-11-10T04:56:40;22.25;;;17.92;;
63807;SDS011;49961;43.970;22.868;2022-11-10T04:57:41;25.57;;;21.13;;
63807;SDS011;49961;43.970;22.868;2022-11-10T04:58:42;22.27;;;19.00;;
63807;SDS011;49961;43.970;22.868;2022-11-10T04:59:42;27.33;;;20.80;;
63807;SDS011;49961;43.970;22.868;2022-11-10T05:00:43;25.03;;;21.73;;
63807;SDS011;49961;43.970;22.868;2022-11-10T05:01:43;25.53;;;19.27;;
63807;SDS011;49961;43.970;22.868;2022-11-10T05:02:44;29.30;;;23.20;;
63807;SDS011;49961;43.970;22.868;2022-11-10T05:03:45;28.23;;;23.87;;
63807;SDS011;49961;43.970;22.868;2022-11-10T05:04:46;25.40;;;19.13;;
63807;SDS011;49961;43.970;22.868;2022-11-10T05:05:46;24.00;;;18.70;;
63807;SDS011;49961;43.970;22.868;2022-11-10T05:06:48;23.17;;;19.70;;
63807;SDS011;49961;43.970;22.868;2022-11-10T05:07:48;27.63;;;20.83;;
63807;SDS011;49961;43.970;22.868;2022-11-10T05:08:49;25.07;;;20.40;;
63807;SDS011;49961;43.970;22.868;2022-11-10T05:09:50;24.65;;;19.05;;
63807;SDS011;49961;43.970;22.868;2022-11-10T05:10:50;26.77;;;20.30;;
63807;SDS011;49961;43.970;22.868;2022-11-10T05:11:51;23.53;;;20.23;;
63807;SDS011;49961;43.970;22.868;2022-11-10T05:12:52;24.27;;;19.00;;
63807;SDS011;49961;43.970;22.868;2022-11-10T05:13:53;26.80;;;20.23;;
63807;SDS011;49961;43.970;22.868;2022-11-10T05:14:54;26.90;;;20.63;;
63807;SDS011;49961;43.970;22.868;2022-11-10T05:15:55;26.47;;;20.10;;
63807;SDS011;49961;43.970;22.868;2022-11-10T05:16:56;25.40;;;20.27;;
63807;SDS011;49961;43.970;22.868;2022-11-10T05:17:56;24.77;;;20.13;;
63807;SDS011;49961;43.970;22.868;2022-11-10T05:18:56;25.77;;;22.53;;
63807;SDS011;49961;43.970;22.868;2022-11-10T05:19:57;29.10;;;24.73;;
63807;SDS011;49961;43.970;22.868;2022-11-10T05:20:57;32.93;;;25.30;;
63807;SDS011;49961;43.970;22.868;2022-11-10T05:21:58;32.33;;;24.33;;
63807;SDS011;49961;43.970;22.868;2022-11-10T05:22:58;32.33;;;23.70;;
63807;SDS011;49961;43.970;22.868;2022-11-10T05:24:17;29.20;;;22.15;;
63807;SDS011;49961;43.970;22.868;2022-11-10T05:25:17;30.43;;;22.70;;
63807;SDS011;49961;43.970;22.868;2022-11-10T05:26:18;30.53;;;24.57;;
63807;SDS011;49961;43.970;22.868;2022-11-10T05:27:18;39.40;;;28.57;;
63807;SDS011;49961;43.970;22.868;2022-11-10T05:28:19;34.90;;;26.60;;
63807;SDS011;49961;43.970;22.868;2022-11-10T05:29:19;35.13;;;27.50;;
63807;SDS011;49961;43.970;22.868;2022-11-10T05:30:20;42.57;;;32.10;;
63807;SDS011;49961;43.970;22.868;2022-11-10T05:31:20;47.60;;;37.17;;
63807;SDS011;49961;43.970;22.868;2022-11-10T05:32:21;47.37;;;38.77;;
63807;SDS011;49961;43.970;22.868;2022-11-10T05:33:21;58.33;;;45.93;;
63807;SDS011;49961;43.970;22.868;2022-11-10T05:34:21;57.03;;;46.13;;
63807;SDS011;49961;43.970;22.868;2022-11-10T05:35:22;62.57;;;50.13;;
63807;SDS011;49961;43.970;22.868;2022-11-10T05:36:23;86.40;;;65.90;;
63807;SDS011;49961;43.970;22.868;2022-11-10T05:37:24;84.63;;;72.87;;
63807;SDS011;49961;43.970;22.868;2022-11-10T05:38:24;89.33;;;73.70;;
63807;SDS011;49961;43.970;22.868;2022-11-10T05:39:25;90.53;;;72.77;;
63807;SDS011;49961;43.970;22.868;2022-11-10T05:40:25;79.63;;;58.67;;
63807;SDS011;49961;43.970;22.868;2022-11-10T05:41:26;84.50;;;60.90;;
63807;SDS011;49961;43.970;22.868;2022-11-10T05:42:26;85.20;;;57.97;;
63807;SDS011;49961;43.970;22.868;2022-11-10T05:43:27;69.07;;;51.30;;
63807;SDS011;49961;43.970;22.868;2022-11-10T05:44:27;70.53;;;48.30;;
63807;SDS011;49961;43.970;22.868;2022-11-10T05:45:27;65.30;;;48.43;;
63807;SDS011;49961;43.970;22.868;2022-11-10T05:46:28;71.10;;;49.97;;
63807;SDS011;49961;43.970;22.868;2022-11-10T05:47:30;80.50;;;53.63;;
63807;SDS011;49961;43.970;22.868;2022-11-10T05:48:31;75.83;;;56.40;;
63807;SDS011;49961;43.970;22.868;2022-11-10T05:49:31;77.47;;;53.80;;
63807;SDS011;49961;43.970;22.868;2022-11-10T05:50:32;75.73;;;54.53;;
63807;SDS011;49961;43.970;22.868;2022-11-10T05:51:32;86.57;;;56.30;;
63807;SDS011;49961;43.970;22.868;2022-11-10T05:52:33;85.23;;;53.47;;
63807;SDS011;49961;43.970;22.868;2022-11-10T05:53:34;82.43;;;55.75;;
63807;SDS011;49961;43.970;22.868;2022-11-10T05:54:37;87.63;;;57.20;;
63807;SDS011;49961;43.970;22.868;2022-11-10T05:55:38;89.30;;;55.15;;
63807;SDS011;49961;43.970;22.868;2022-11-10T05:56:40;87.87;;;55.53;;
63807;SDS011;49961;43.970;22.868;2022-11-10T05:57:53;88.47;;;59.13;;
63807;SDS011;49961;43.970;22.868;2022-11-10T05:58:54;95.65;;;64.75;;
63807;SDS011;49961;43.970;22.868;2022-11-10T05:59:54;90.00;;;58.63;;
63807;SDS011;49961;43.970;22.868;2022-11-10T06:00:58;90.60;;;57.88;;